sensor_id;sensor_type;location;lat;lon;timestamp;temperature;humidity
11577;DHT22;5844;51.496;6.788;2023-09-18T00:00:50;19.80;1.00
11577;DHT22;5844;51.496;6.788;2023-09-18T00:03:19;19.80;1.00
11577;DHT22;5844;51.496;6.788;2023-09-18T00:05:46;19.90;1.00
11577;DHT22;5844;51.496;6.788;2023-09-18T00:08:13;19.90;1.00
11577;DHT22;5844;51.496;6.788;2023-09-18T00:10:39;19.90;1.00
11577;DHT22;5844;51.496;6.788;2023-09-18T00:13:05;19.90;1.00
11577;DHT22;5844;51.496;6.788;2023-09-18T00:15:30;19.90;1.00
11577;DHT22;5844;51.496;6.788;2023-09-18T00:17:56;19.90;1.00
11577;DHT22;5844;51.496;6.788;2023-09-18T00:20:22;19.90;1.00
11577;DHT22;5844;51.496;6.788;2023-09-18T00:22:55;19.90;1.00
11577;DHT22;5844;51.496;6.788;2023-09-18T00:25:23;19.90;1.00
11577;DHT22;5844;51.496;6.788;2023-09-18T00:27:49;19.70;1.00
11577;DHT22;5844;51.496;6.788;2023-09-18T00:30:15;19.90;1.00
11577;DHT22;5844;51.496;6.788;2023-09-18T00:32:40;19.90;1.00
11577;DHT22;5844;51.496;6.788;2023-09-18T00:35:06;19.90;1.00
11577;DHT22;5844;51.496;6.788;2023-09-18T00:37:32;19.90;1.00
11577;DHT22;5844;51.496;6.788;2023-09-18T00:39:58;19.90;1.00
11577;DHT22;5844;51.496;6.788;2023-09-18T00:42:24;19.90;1.00
11577;DHT22;5844;51.496;6.788;2023-09-18T00:44:50;19.90;1.00
11577;DHT22;5844;51.496;6.788;2023-09-18T00:47:18;19.90;1.00
11577;DHT22;5844;51.496;6.788;2023-09-18T00:49:47;19.90;1.00
11577;DHT22;5844;51.496;6.788;2023-09-18T00:52:14;19.90;1.00
11577;DHT22;5844;51.496;6.788;2023-09-18T00:54:42;19.80;1.00
11577;DHT22;5844;51.496;6.788;2023-09-18T00:57:09;19.80;1.00
11577;DHT22;5844;51.496;6.788;2023-09-18T00:59:38;19.80;1.00
11577;DHT22;5844;51.496;6.788;2023-09-18T01:02:04;19.80;1.00
11577;DHT22;5844;51.496;6.788;2023-09-18T01:04:30;19.80;1.00
11577;DHT22;5844;51.496;6.788;2023-09-18T01:06:58;19.80;1.00
11577;DHT22;5844;51.496;6.788;2023-09-18T01:09:26;19.80;1.00
11577;DHT22;5844;51.496;6.788;2023-09-18T01:14:37;19.80;1.00
11577;DHT22;5844;51.496;6.788;2023-09-18T01:17:06;19.80;1.00
11577;DHT22;5844;51.496;6.788;2023-09-18T01:19:43;19.80;1.00
11577;DHT22;5844;51.496;6.788;2023-09-18T01:22:16;19.70;1.00
11577;DHT22;5844;51.496;6.788;2023-09-18T01:24:43;19.70;1.00
11577;DHT22;5844;51.496;6.788;2023-09-18T01:27:11;19.70;1.00
11577;DHT22;5844;51.496;6.788;2023-09-18T01:29:38;19.60;1.00
11577;DHT22;5844;51.496;6.788;2023-09-18T01:32:05;19.60;1.00
11577;DHT22;5844;51.496;6.788;2023-09-18T01:34:39;19.60;1.00
11577;DHT22;5844;51.496;6.788;2023-09-18T01:37:07;19.60;1.00
11577;DHT22;5844;51.496;6.788;2023-09-18T01:39:35;19.60;1.00
11577;DHT22;5844;51.496;6.788;2023-09-18T01:42:05;19.60;1.00
11577;DHT22;5844;51.496;6.788;2023-09-18T01:44:33;19.60;1.00
11577;DHT22;5844;51.496;6.788;2023-09-18T01:46:59;19.60;1.00
11577;DHT22;5844;51.496;6.788;2023-09-18T01:49:32;19.50;1.00
11577;DHT22;5844;51.496;6.788;2023-09-18T01:51:58;19.50;1.00
11577;DHT22;5844;51.496;6.788;2023-09-18T01:54:24;19.60;1.00
11577;DHT22;5844;51.496;6.788;2023-09-18T01:56:51;19.60;1.00
11577;DHT22;5844;51.496;6.788;2023-09-18T01:59:17;19.50;1.00
11577;DHT22;5844;51.496;6.788;2023-09-18T02:01:44;19.50;1.00
11577;DHT22;5844;51.496;6.788;2023-09-18T02:04:09;19.50;1.00
11577;DHT22;5844;51.496;6.788;2023-09-18T02:06:35;19.50;1.00
11577;DHT22;5844;51.496;6.788;2023-09-18T02:09:01;19.50;1.00
11577;DHT22;5844;51.496;6.788;2023-09-18T02:11:27;19.50;1.00
11577;DHT22;5844;51.496;6.788;2023-09-18T02:13:53;19.50;1.00
11577;DHT22;5844;51.496;6.788;2023-09-18T02:16:19;19.50;1.00
11577;DHT22;5844;51.496;6.788;2023-09-18T02:18:49;19.50;1.00
11577;DHT22;5844;51.496;6.788;2023-09-18T02:21:19;19.50;1.00
11577;DHT22;5844;51.496;6.788;2023-09-18T02:23:48;19.50;1.00
11577;DHT22;5844;51.496;6.788;2023-09-18T02:26:14;19.50;1.00
11577;DHT22;5844;51.496;6.788;2023-09-18T02:28:39;19.50;1.00
11577;DHT22;5844;51.496;6.788;2023-09-18T02:31:05;19.50;1.00
11577;DHT22;5844;51.496;6.788;2023-09-18T02:33:30;19.50;1.00
11577;DHT22;5844;51.496;6.788;2023-09-18T02:35:56;19.50;1.00
11577;DHT22;5844;51.496;6.788;2023-09-18T02:38:22;19.60;1.00
11577;DHT22;5844;51.496;6.788;2023-09-18T02:40:48;19.60;1.00
11577;DHT22;5844;51.496;6.788;2023-09-18T02:43:15;19.60;1.00
11577;DHT22;5844;51.496;6.788;2023-09-18T02:45:40;19.60;1.00
11577;DHT22;5844;51.496;6.788;2023-09-18T02:48:06;19.60;1.00
11577;DHT22;5844;51.496;6.788;2023-09-18T02:50:31;19.60;1.00
11577;DHT22;5844;51.496;6.788;2023-09-18T02:52:57;19.50;1.00
11577;DHT22;5844;51.496;6.788;2023-09-18T02:55:23;19.50;1.00
11577;DHT22;5844;51.496;6.788;2023-09-18T02:57:48;19.40;1.00
11577;DHT22;5844;51.496;6.788;2023-09-18T03:00:14;19.40;1.00
11577;DHT22;5844;51.496;6.788;2023-09-18T03:02:40;19.40;1.00
11577;DHT22;5844;51.496;6.788;2023-09-18T03:05:06;19.40;1.00
11577;DHT22;5844;51.496;6.788;2023-09-18T03:07:32;19.40;1.00
11577;DHT22;5844;51.496;6.788;2023-09-18T03:09:57;19.40;1.00
11577;DHT22;5844;51.496;6.788;2023-09-18T03:12:23;19.50;1.00
11577;DHT22;5844;51.496;6.788;2023-09-18T03:14:48;19.50;1.00
11577;DHT22;5844;51.496;6.788;2023-09-18T03:17:14;19.50;1.00
11577;DHT22;5844;51.496;6.788;2023-09-18T03:19:39;19.50;1.00
11577;DHT22;5844;51.496;6.788;2023-09-18T03:22:05;19.50;1.00
11577;DHT22;5844;51.496;6.788;2023-09-18T03:24:31;19.60;1.00
11577;DHT22;5844;51.496;6.788;2023-09-18T03:26:56;19.70;1.00
11577;DHT22;5844;51.496;6.788;2023-09-18T03:29:22;19.70;1.00
11577;DHT22;5844;51.496;6.788;2023-09-18T03:31:48;19.80;1.00
11577;DHT22;5844;51.496;6.788;2023-09-18T03:34:13;19.90;1.00
11577;DHT22;5844;51.496;6.788;2023-09-18T03:36:40;19.90;1.00
11577;DHT22;5844;51.496;6.788;2023-09-18T03:39:05;19.90;1.00
11577;DHT22;5844;51.496;6.788;2023-09-18T03:41:31;19.90;1.00
11577;DHT22;5844;51.496;6.788;2023-09-18T03:44:00;19.90;1.00
11577;DHT22;5844;51.496;6.788;2023-09-18T03:46:26;20.10;1.00
11577;DHT22;5844;51.496;6.788;2023-09-18T03:48:52;20.10;1.00
11577;DHT22;5844;51.496;6.788;2023-09-18T03:51:18;20.30;1.00
11577;DHT22;5844;51.496;6.788;2023-09-18T03:53:44;20.50;1.00
11577;DHT22;5844;51.496;6.788;2023-09-18T03:56:10;20.60;1.00
11577;DHT22;5844;51.496;6.788;2023-09-18T03:58:36;20.70;1.00
11577;DHT22;5844;51.496;6.788;2023-09-18T04:01:02;20.90;1.00
11577;DHT22;5844;51.496;6.788;2023-09-18T04:03:27;21.10;1.00
11577;DHT22;5844;51.496;6.788;2023-09-18T04:05:53;21.10;1.00
11577;DHT22;5844;51.496;6.788;2023-09-18T04:08:18;21.00;1.00
11577;DHT22;5844;51.496;6.788;2023-09-18T04:10:44;21.00;1.00
11577;DHT22;5844;51.496;6.788;2023-09-18T04:13:11;20.90;1.00
11577;DHT22;5844;51.496;6.788;2023-09-18T04:15:37;20.90;1.00
11577;DHT22;5844;51.496;6.788;2023-09-18T04:18:06;20.80;1.00
11577;DHT22;5844;51.496;6.788;2023-09-18T04:20:32;20.70;1.00
11577;DHT22;5844;51.496;6.788;2023-09-18T04:23:22;20.60;1.00
11577;DHT22;5844;51.496;6.788;2023-09-18T04:25:48;20.70;1.00
11577;DHT22;5844;51.496;6.788;2023-09-18T04:28:15;20.80;1.00
11577;DHT22;5844;51.496;6.788;2023-09-18T04:30:41;20.80;1.00
11577;DHT22;5844;51.496;6.788;2023-09-18T04:33:07;20.90;1.00
11577;DHT22;5844;51.496;6.788;2023-09-18T04:35:33;21.00;1.00
11577;DHT22;5844;51.496;6.788;2023-09-18T04:37:59;21.10;1.00
11577;DHT22;5844;51.496;6.788;2023-09-18T04:40:25;21.20;1.00
11577;DHT22;5844;51.496;6.788;2023-09-18T04:42:58;21.20;1.00
11577;DHT22;5844;51.496;6.788;2023-09-18T04:45:24;21.20;1.00
11577;DHT22;5844;51.496;6.788;2023-09-18T04:47:50;21.10;1.00
11577;DHT22;5844;51.496;6.788;2023-09-18T04:50:16;21.10;1.00
11577;DHT22;5844;51.496;6.788;2023-09-18T04:52:41;21.10;1.00
11577;DHT22;5844;51.496;6.788;2023-09-18T04:55:10;21.20;1.00
11577;DHT22;5844;51.496;6.788;2023-09-18T04:57:37;21.10;1.00
11577;DHT22;5844;51.496;6.788;2023-09-18T05:00:03;21.10;1.00
11577;DHT22;5844;51.496;6.788;2023-09-18T05:02:33;21.00;1.00
11577;DHT22;5844;51.496;6.788;2023-09-18T05:05:00;21.00;1.00
11577;DHT22;5844;51.496;6.788;2023-09-18T05:07:26;21.00;1.00
11577;DHT22;5844;51.496;6.788;2023-09-18T05:09:52;21.10;1.00
11577;DHT22;5844;51.496;6.788;2023-09-18T05:12:18;21.10;1.00
11577;DHT22;5844;51.496;6.788;2023-09-18T05:14:44;21.00;1.00
11577;DHT22;5844;51.496;6.788;2023-09-18T05:17:16;21.00;1.00
11577;DHT22;5844;51.496;6.788;2023-09-18T05:19:43;21.00;1.00
11577;DHT22;5844;51.496;6.788;2023-09-18T05:22:09;21.00;1.00
11577;DHT22;5844;51.496;6.788;2023-09-18T05:24:37;21.00;1.00
11577;DHT22;5844;51.496;6.788;2023-09-18T05:27:02;21.00;1.00
11577;DHT22;5844;51.496;6.788;2023-09-18T05:29:28;20.90;1.00
11577;DHT22;5844;51.496;6.788;2023-09-18T05:31:54;20.80;1.00
11577;DHT22;5844;51.496;6.788;2023-09-18T05:34:19;20.70;1.00
11577;DHT22;5844;51.496;6.788;2023-09-18T05:36:45;20.70;1.00
11577;DHT22;5844;51.496;6.788;2023-09-18T05:39:11;20.60;1.00
11577;DHT22;5844;51.496;6.788;2023-09-18T05:41:38;20.70;1.00
11577;DHT22;5844;51.496;6.788;2023-09-18T05:44:04;20.70;1.00
11577;DHT22;5844;51.496;6.788;2023-09-18T05:46:30;20.70;1.00
11577;DHT22;5844;51.496;6.788;2023-09-18T05:48:56;20.70;1.00
11577;DHT22;5844;51.496;6.788;2023-09-18T05:51:23;20.70;1.00
11577;DHT22;5844;51.496;6.788;2023-09-18T05:53:49;20.70;1.00
11577;DHT22;5844;51.496;6.788;2023-09-18T05:56:15;20.60;1.00
11577;DHT22;5844;51.496;6.788;2023-09-18T05:58:42;20.60;1.00
11577;DHT22;5844;51.496;6.788;2023-09-18T06:01:08;20.60;1.00
11577;DHT22;5844;51.496;6.788;2023-09-18T06:03:33;20.60;1.00
11577;DHT22;5844;51.496;6.788;2023-09-18T06:06:07;20.60;1.00
11577;DHT22;5844;51.496;6.788;2023-09-18T06:08:34;20.70;1.00
11577;DHT22;5844;51.496;6.788;2023-09-18T06:10:59;20.70;1.00
11577;DHT22;5844;51.496;6.788;2023-09-18T06:13:25;20.70;1.00
11577;DHT22;5844;51.496;6.788;2023-09-18T06:15:53;20.80;1.00
11577;DHT22;5844;51.496;6.788;2023-09-18T06:18:20;20.80;1.00
11577;DHT22;5844;51.496;6.788;2023-09-18T06:20:47;20.80;1.00
11577;DHT22;5844;51.496;6.788;2023-09-18T06:23:12;20.90;1.00
11577;DHT22;5844;51.496;6.788;2023-09-18T06:25:39;20.90;1.00
11577;DHT22;5844;51.496;6.788;2023-09-18T06:28:05;20.90;1.00
11577;DHT22;5844;51.496;6.788;2023-09-18T06:30:31;20.90;1.00
11577;DHT22;5844;51.496;6.788;2023-09-18T06:32:59;20.90;1.00
11577;DHT22;5844;51.496;6.788;2023-09-18T06:35:24;21.00;1.00
11577;DHT22;5844;51.496;6.788;2023-09-18T06:37:50;21.00;1.00
11577;DHT22;5844;51.496;6.788;2023-09-18T06:40:16;21.00;1.00
11577;DHT22;5844;51.496;6.788;2023-09-18T06:42:42;21.00;1.00
11577;DHT22;5844;51.496;6.788;2023-09-18T06:45:08;21.00;1.00
11577;DHT22;5844;51.496;6.788;2023-09-18T06:47:34;21.00;1.00
11577;DHT22;5844;51.496;6.788;2023-09-18T06:50:00;21.10;1.00
11577;DHT22;5844;51.496;6.788;2023-09-18T06:52:28;21.20;1.00
11577;DHT22;5844;51.496;6.788;2023-09-18T06:54:54;21.20;1.00
11577;DHT22;5844;51.496;6.788;2023-09-18T06:57:20;21.20;1.00
11577;DHT22;5844;51.496;6.788;2023-09-18T06:59:46;21.20;1.00
11577;DHT22;5844;51.496;6.788;2023-09-18T07:02:12;21.30;1.00
11577;DHT22;5844;51.496;6.788;2023-09-18T07:04:43;21.40;1.00
11577;DHT22;5844;51.496;6.788;2023-09-18T07:07:13;21.50;1.00
11577;DHT22;5844;51.496;6.788;2023-09-18T07:09:40;21.50;1.00
11577;DHT22;5844;51.496;6.788;2023-09-18T07:12:06;21.50;1.00
11577;DHT22;5844;51.496;6.788;2023-09-18T07:14:32;21.50;1.00
11577;DHT22;5844;51.496;6.788;2023-09-18T07:16:57;21.60;1.00
11577;DHT22;5844;51.496;6.788;2023-09-18T07:19:23;21.60;1.00
11577;DHT22;5844;51.496;6.788;2023-09-18T07:21:48;21.60;1.00
11577;DHT22;5844;51.496;6.788;2023-09-18T07:24:15;21.60;1.00
11577;DHT22;5844;51.496;6.788;2023-09-18T07:26:44;21.60;1.00
11577;DHT22;5844;51.496;6.788;2023-09-18T07:29:11;21.60;1.00
11577;DHT22;5844;51.496;6.788;2023-09-18T07:31:36;21.60;1.00
11577;DHT22;5844;51.496;6.788;2023-09-18T07:34:02;21.70;1.00
11577;DHT22;5844;51.496;6.788;2023-09-18T07:36:29;21.80;1.00
11577;DHT22;5844;51.496;6.788;2023-09-18T07:38:55;21.80;1.00
11577;DHT22;5844;51.496;6.788;2023-09-18T07:41:23;21.80;1.00
11577;DHT22;5844;51.496;6.788;2023-09-18T07:43:49;21.80;1.00
11577;DHT22;5844;51.496;6.788;2023-09-18T07:46:14;21.70;1.00
11577;DHT22;5844;51.496;6.788;2023-09-18T07:48:40;21.70;1.00
11577;DHT22;5844;51.496;6.788;2023-09-18T07:51:06;21.80;1.00
11577;DHT22;5844;51.496;6.788;2023-09-18T07:53:31;21.60;1.00
11577;DHT22;5844;51.496;6.788;2023-09-18T07:55:58;21.60;1.00
11577;DHT22;5844;51.496;6.788;2023-09-18T07:58:25;21.60;1.00
11577;DHT22;5844;51.496;6.788;2023-09-18T08:00:57;21.60;1.00
11577;DHT22;5844;51.496;6.788;2023-09-18T08:03:23;21.50;1.00
11577;DHT22;5844;51.496;6.788;2023-09-18T08:05:53;21.60;1.00
11577;DHT22;5844;51.496;6.788;2023-09-18T08:08:20;21.60;1.00
11577;DHT22;5844;51.496;6.788;2023-09-18T08:10:49;21.70;1.00
11577;DHT22;5844;51.496;6.788;2023-09-18T08:13:16;21.70;1.00
11577;DHT22;5844;51.496;6.788;2023-09-18T08:15:42;21.80;1.00
11577;DHT22;5844;51.496;6.788;2023-09-18T08:18:07;21.80;1.00
11577;DHT22;5844;51.496;6.788;2023-09-18T08:20:33;21.90;1.00
11577;DHT22;5844;51.496;6.788;2023-09-18T08:22:59;21.90;1.00
11577;DHT22;5844;51.496;6.788;2023-09-18T08:25:28;22.00;1.00
11577;DHT22;5844;51.496;6.788;2023-09-18T08:27:54;22.20;1.00
11577;DHT22;5844;51.496;6.788;2023-09-18T08:30:20;22.00;1.00
11577;DHT22;5844;51.496;6.788;2023-09-18T08:32:47;22.00;1.00
11577;DHT22;5844;51.496;6.788;2023-09-18T08:35:13;22.00;1.00
11577;DHT22;5844;51.496;6.788;2023-09-18T08:37:42;22.00;1.00
11577;DHT22;5844;51.496;6.788;2023-09-18T08:40:12;22.00;1.00
11577;DHT22;5844;51.496;6.788;2023-09-18T08:42:48;21.90;1.00
11577;DHT22;5844;51.496;6.788;2023-09-18T08:45:25;21.90;1.00
11577;DHT22;5844;51.496;6.788;2023-09-18T08:47:54;22.00;1.00
11577;DHT22;5844;51.496;6.788;2023-09-18T08:50:21;21.90;1.00
11577;DHT22;5844;51.496;6.788;2023-09-18T08:52:47;21.90;1.00
11577;DHT22;5844;51.496;6.788;2023-09-18T08:55:15;22.00;1.00
11577;DHT22;5844;51.496;6.788;2023-09-18T08:57:42;22.10;1.00
11577;DHT22;5844;51.496;6.788;2023-09-18T09:00:08;22.20;1.00
11577;DHT22;5844;51.496;6.788;2023-09-18T09:02:37;22.10;1.00
11577;DHT22;5844;51.496;6.788;2023-09-18T09:05:04;21.90;1.00
11577;DHT22;5844;51.496;6.788;2023-09-18T09:07:30;22.00;1.00
11577;DHT22;5844;51.496;6.788;2023-09-18T09:09:56;21.90;1.00
11577;DHT22;5844;51.496;6.788;2023-09-18T09:15:14;22.00;1.00
11577;DHT22;5844;51.496;6.788;2023-09-18T09:17:41;22.00;1.00
11577;DHT22;5844;51.496;6.788;2023-09-18T09:20:14;22.10;1.00
11577;DHT22;5844;51.496;6.788;2023-09-18T09:22:41;22.50;1.00
11577;DHT22;5844;51.496;6.788;2023-09-18T09:25:28;22.90;1.00
11577;DHT22;5844;51.496;6.788;2023-09-18T09:27:57;23.10;1.00
11577;DHT22;5844;51.496;6.788;2023-09-18T09:30:28;23.10;1.00
11577;DHT22;5844;51.496;6.788;2023-09-18T09:32:56;23.00;1.00
11577;DHT22;5844;51.496;6.788;2023-09-18T09:35:27;22.90;1.00
11577;DHT22;5844;51.496;6.788;2023-09-18T09:38:01;22.70;1.00
11577;DHT22;5844;51.496;6.788;2023-09-18T09:40:28;22.50;1.00
11577;DHT22;5844;51.496;6.788;2023-09-18T09:42:56;22.60;1.00
11577;DHT22;5844;51.496;6.788;2023-09-18T09:45:31;22.90;1.00
11577;DHT22;5844;51.496;6.788;2023-09-18T09:48:02;22.90;1.00
11577;DHT22;5844;51.496;6.788;2023-09-18T09:50:30;23.10;1.00
11577;DHT22;5844;51.496;6.788;2023-09-18T09:52:56;23.00;1.00
11577;DHT22;5844;51.496;6.788;2023-09-18T09:55:28;22.70;1.00
11577;DHT22;5844;51.496;6.788;2023-09-18T09:58:02;22.70;1.00
11577;DHT22;5844;51.496;6.788;2023-09-18T10:00:33;22.60;1.00
11577;DHT22;5844;51.496;6.788;2023-09-18T10:03:11;22.60;1.00
11577;DHT22;5844;51.496;6.788;2023-09-18T10:05:43;22.90;1.00
11577;DHT22;5844;51.496;6.788;2023-09-18T10:08:16;23.50;1.00
11577;DHT22;5844;51.496;6.788;2023-09-18T10:10:47;23.70;1.00
11577;DHT22;5844;51.496;6.788;2023-09-18T10:13:47;23.70;1.00
11577;DHT22;5844;51.496;6.788;2023-09-18T10:16:14;23.50;1.00
11577;DHT22;5844;51.496;6.788;2023-09-18T10:24:21;23.80;1.00
11577;DHT22;5844;51.496;6.788;2023-09-18T10:29:22;24.50;1.00
11577;DHT22;5844;51.496;6.788;2023-09-18T10:31:50;24.70;1.00
11577;DHT22;5844;51.496;6.788;2023-09-18T10:34:17;25.00;1.00
11577;DHT22;5844;51.496;6.788;2023-09-18T10:36:47;25.40;1.00
11577;DHT22;5844;51.496;6.788;2023-09-18T10:39:13;25.70;1.00
11577;DHT22;5844;51.496;6.788;2023-09-18T10:41:47;26.20;1.00
11577;DHT22;5844;51.496;6.788;2023-09-18T10:44:14;26.50;1.00
11577;DHT22;5844;51.496;6.788;2023-09-18T10:46:39;26.90;1.00
11577;DHT22;5844;51.496;6.788;2023-09-18T10:49:05;27.30;1.00
11577;DHT22;5844;51.496;6.788;2023-09-18T10:51:32;26.80;1.00
11577;DHT22;5844;51.496;6.788;2023-09-18T10:53:59;27.40;1.00
11577;DHT22;5844;51.496;6.788;2023-09-18T10:56:26;27.50;1.00
11577;DHT22;5844;51.496;6.788;2023-09-18T10:58:59;27.70;1.00
11577;DHT22;5844;51.496;6.788;2023-09-18T11:01:25;28.40;1.00
11577;DHT22;5844;51.496;6.788;2023-09-18T11:03:53;28.40;1.00
11577;DHT22;5844;51.496;6.788;2023-09-18T11:06:22;28.00;1.00
11577;DHT22;5844;51.496;6.788;2023-09-18T11:08:55;27.60;1.00
11577;DHT22;5844;51.496;6.788;2023-09-18T11:11:26;28.50;1.00
11577;DHT22;5844;51.496;6.788;2023-09-18T11:13:56;29.20;1.00
11577;DHT22;5844;51.496;6.788;2023-09-18T11:21:27;27.90;1.00
11577;DHT22;5844;51.496;6.788;2023-09-18T11:26:32;27.00;1.00
11577;DHT22;5844;51.496;6.788;2023-09-18T11:29:05;27.10;1.00
11577;DHT22;5844;51.496;6.788;2023-09-18T11:31:50;27.60;1.00
11577;DHT22;5844;51.496;6.788;2023-09-18T11:34:23;27.30;1.00
11577;DHT22;5844;51.496;6.788;2023-09-18T11:36:50;27.10;1.00
11577;DHT22;5844;51.496;6.788;2023-09-18T11:39:37;27.10;1.00
11577;DHT22;5844;51.496;6.788;2023-09-18T11:44:34;26.30;1.00
11577;DHT22;5844;51.496;6.788;2023-09-18T11:47:01;26.60;1.00
11577;DHT22;5844;51.496;6.788;2023-09-18T11:49:29;27.70;1.00
11577;DHT22;5844;51.496;6.788;2023-09-18T11:52:00;28.90;1.00
11577;DHT22;5844;51.496;6.788;2023-09-18T11:54:27;29.50;1.00
11577;DHT22;5844;51.496;6.788;2023-09-18T11:56:54;29.40;1.00
11577;DHT22;5844;51.496;6.788;2023-09-18T11:59:42;29.30;1.00
11577;DHT22;5844;51.496;6.788;2023-09-18T12:02:09;29.60;1.00
11577;DHT22;5844;51.496;6.788;2023-09-18T12:04:36;30.00;1.00
11577;DHT22;5844;51.496;6.788;2023-09-18T12:07:04;30.50;1.00
11577;DHT22;5844;51.496;6.788;2023-09-18T12:09:31;30.00;1.00
11577;DHT22;5844;51.496;6.788;2023-09-18T12:12:01;29.60;1.00
11577;DHT22;5844;51.496;6.788;2023-09-18T12:14:33;29.90;1.00
11577;DHT22;5844;51.496;6.788;2023-09-18T12:17:01;30.20;1.00
11577;DHT22;5844;51.496;6.788;2023-09-18T12:19:28;29.60;1.00
11577;DHT22;5844;51.496;6.788;2023-09-18T12:21:54;28.40;1.00
11577;DHT22;5844;51.496;6.788;2023-09-18T12:24:24;28.10;1.00
11577;DHT22;5844;51.496;6.788;2023-09-18T12:26:51;28.20;1.00
11577;DHT22;5844;51.496;6.788;2023-09-18T12:29:18;28.90;1.00
11577;DHT22;5844;51.496;6.788;2023-09-18T12:31:44;29.70;1.00
11577;DHT22;5844;51.496;6.788;2023-09-18T12:34:15;30.20;1.00
11577;DHT22;5844;51.496;6.788;2023-09-18T12:36:44;29.50;1.00
11577;DHT22;5844;51.496;6.788;2023-09-18T12:39:13;29.50;1.00
11577;DHT22;5844;51.496;6.788;2023-09-18T12:41:42;29.80;1.00
11577;DHT22;5844;51.496;6.788;2023-09-18T12:44:09;30.90;1.00
11577;DHT22;5844;51.496;6.788;2023-09-18T12:46:36;29.80;1.00
11577;DHT22;5844;51.496;6.788;2023-09-18T12:49:18;30.70;1.00
11577;DHT22;5844;51.496;6.788;2023-09-18T12:51:53;30.30;1.00
11577;DHT22;5844;51.496;6.788;2023-09-18T12:54:18;30.80;1.00
11577;DHT22;5844;51.496;6.788;2023-09-18T12:56:44;30.80;1.00
11577;DHT22;5844;51.496;6.788;2023-09-18T12:59:10;30.80;1.00
11577;DHT22;5844;51.496;6.788;2023-09-18T13:01:36;30.70;1.00
11577;DHT22;5844;51.496;6.788;2023-09-18T13:04:05;30.80;1.00
11577;DHT22;5844;51.496;6.788;2023-09-18T13:06:31;30.60;1.00
11577;DHT22;5844;51.496;6.788;2023-09-18T13:09:15;29.40;1.00
11577;DHT22;5844;51.496;6.788;2023-09-18T13:11:56;29.60;1.00
11577;DHT22;5844;51.496;6.788;2023-09-18T13:14:22;30.50;1.00
11577;DHT22;5844;51.496;6.788;2023-09-18T13:16:47;30.00;1.00
11577;DHT22;5844;51.496;6.788;2023-09-18T13:19:13;28.70;1.00
11577;DHT22;5844;51.496;6.788;2023-09-18T13:21:46;27.50;1.00
11577;DHT22;5844;51.496;6.788;2023-09-18T13:24:27;26.80;1.00
11577;DHT22;5844;51.496;6.788;2023-09-18T13:26:54;26.50;1.00
11577;DHT22;5844;51.496;6.788;2023-09-18T13:29:21;26.20;1.00
11577;DHT22;5844;51.496;6.788;2023-09-18T13:31:47;26.80;1.00
11577;DHT22;5844;51.496;6.788;2023-09-18T13:34:12;28.20;1.00
11577;DHT22;5844;51.496;6.788;2023-09-18T13:36:38;27.80;1.00
11577;DHT22;5844;51.496;6.788;2023-09-18T13:39:04;27.90;1.00
11577;DHT22;5844;51.496;6.788;2023-09-18T13:41:30;28.60;1.00
11577;DHT22;5844;51.496;6.788;2023-09-18T13:43:56;29.40;1.00
11577;DHT22;5844;51.496;6.788;2023-09-18T13:46:22;30.50;1.00
11577;DHT22;5844;51.496;6.788;2023-09-18T13:48:49;30.60;1.00
11577;DHT22;5844;51.496;6.788;2023-09-18T13:51:14;30.30;1.00
11577;DHT22;5844;51.496;6.788;2023-09-18T13:53:40;31.10;1.00
11577;DHT22;5844;51.496;6.788;2023-09-18T13:56:07;31.20;1.00
11577;DHT22;5844;51.496;6.788;2023-09-18T13:58:33;31.30;1.00
11577;DHT22;5844;51.496;6.788;2023-09-18T14:00:59;31.00;1.00
11577;DHT22;5844;51.496;6.788;2023-09-18T14:03:25;30.90;1.00
11577;DHT22;5844;51.496;6.788;2023-09-18T14:05:51;30.80;1.00
11577;DHT22;5844;51.496;6.788;2023-09-18T14:08:17;30.80;1.00
11577;DHT22;5844;51.496;6.788;2023-09-18T14:10:44;30.50;1.00
11577;DHT22;5844;51.496;6.788;2023-09-18T14:13:09;30.70;1.00
11577;DHT22;5844;51.496;6.788;2023-09-18T14:15:35;30.00;1.00
11577;DHT22;5844;51.496;6.788;2023-09-18T14:18:02;30.40;1.00
11577;DHT22;5844;51.496;6.788;2023-09-18T14:20:28;31.20;1.00
11577;DHT22;5844;51.496;6.788;2023-09-18T14:22:54;31.60;1.00
11577;DHT22;5844;51.496;6.788;2023-09-18T14:25:20;32.10;1.00
11577;DHT22;5844;51.496;6.788;2023-09-18T14:27:47;31.90;1.00
11577;DHT22;5844;51.496;6.788;2023-09-18T14:30:13;30.90;1.00
11577;DHT22;5844;51.496;6.788;2023-09-18T14:32:39;30.90;1.00
11577;DHT22;5844;51.496;6.788;2023-09-18T14:35:05;30.90;1.00
11577;DHT22;5844;51.496;6.788;2023-09-18T14:37:34;30.80;1.00
11577;DHT22;5844;51.496;6.788;2023-09-18T14:40:00;30.90;1.00
11577;DHT22;5844;51.496;6.788;2023-09-18T14:42:25;30.90;1.00
11577;DHT22;5844;51.496;6.788;2023-09-18T14:44:51;31.70;1.00
11577;DHT22;5844;51.496;6.788;2023-09-18T14:47:17;31.80;1.00
11577;DHT22;5844;51.496;6.788;2023-09-18T14:49:43;32.20;1.00
11577;DHT22;5844;51.496;6.788;2023-09-18T14:52:14;31.70;1.00
11577;DHT22;5844;51.496;6.788;2023-09-18T14:54:40;30.90;1.00
11577;DHT22;5844;51.496;6.788;2023-09-18T14:57:06;30.40;1.00
11577;DHT22;5844;51.496;6.788;2023-09-18T14:59:31;29.90;1.00
11577;DHT22;5844;51.496;6.788;2023-09-18T15:01:58;30.00;1.00
11577;DHT22;5844;51.496;6.788;2023-09-18T15:04:24;30.00;1.00
11577;DHT22;5844;51.496;6.788;2023-09-18T15:06:49;30.10;1.00
11577;DHT22;5844;51.496;6.788;2023-09-18T15:09:15;29.50;1.00
11577;DHT22;5844;51.496;6.788;2023-09-18T15:11:42;29.90;1.00
11577;DHT22;5844;51.496;6.788;2023-09-18T15:14:08;30.80;1.00
11577;DHT22;5844;51.496;6.788;2023-09-18T15:16:35;30.90;1.00
11577;DHT22;5844;51.496;6.788;2023-09-18T15:19:01;31.40;1.00
11577;DHT22;5844;51.496;6.788;2023-09-18T15:21:29;31.80;1.00
11577;DHT22;5844;51.496;6.788;2023-09-18T15:23:55;31.50;1.00
11577;DHT22;5844;51.496;6.788;2023-09-18T15:26:22;30.90;1.00
11577;DHT22;5844;51.496;6.788;2023-09-18T15:28:49;30.50;1.00
11577;DHT22;5844;51.496;6.788;2023-09-18T15:31:14;30.10;1.00
11577;DHT22;5844;51.496;6.788;2023-09-18T15:33:40;29.80;1.00
11577;DHT22;5844;51.496;6.788;2023-09-18T15:36:07;29.70;1.00
11577;DHT22;5844;51.496;6.788;2023-09-18T15:38:33;28.40;1.00
11577;DHT22;5844;51.496;6.788;2023-09-18T15:40:58;27.60;1.00
11577;DHT22;5844;51.496;6.788;2023-09-18T15:43:25;27.60;1.00
11577;DHT22;5844;51.496;6.788;2023-09-18T15:45:52;27.90;1.00
11577;DHT22;5844;51.496;6.788;2023-09-18T15:48:18;27.90;1.00
11577;DHT22;5844;51.496;6.788;2023-09-18T15:50:44;27.80;1.00
11577;DHT22;5844;51.496;6.788;2023-09-18T15:53:10;27.60;1.00
11577;DHT22;5844;51.496;6.788;2023-09-18T15:55:36;27.50;1.00
11577;DHT22;5844;51.496;6.788;2023-09-18T15:58:06;27.40;1.00
11577;DHT22;5844;51.496;6.788;2023-09-18T16:00:35;27.70;1.00
11577;DHT22;5844;51.496;6.788;2023-09-18T16:03:02;27.00;1.00
11577;DHT22;5844;51.496;6.788;2023-09-18T16:05:28;26.60;1.00
11577;DHT22;5844;51.496;6.788;2023-09-18T16:07:54;26.30;1.00
11577;DHT22;5844;51.496;6.788;2023-09-18T16:10:28;26.00;1.00
11577;DHT22;5844;51.496;6.788;2023-09-18T16:12:53;25.70;1.00
11577;DHT22;5844;51.496;6.788;2023-09-18T16:15:19;25.40;1.00
11577;DHT22;5844;51.496;6.788;2023-09-18T16:17:45;25.20;1.00
11577;DHT22;5844;51.496;6.788;2023-09-18T16:20:11;25.20;1.00
11577;DHT22;5844;51.496;6.788;2023-09-18T16:22:37;25.10;1.00
11577;DHT22;5844;51.496;6.788;2023-09-18T16:25:03;25.00;1.00
11577;DHT22;5844;51.496;6.788;2023-09-18T16:27:28;25.00;1.00